Time;durP1;ratioP1;P1;durP2;ratioP2;P2;SDS_P1;SDS_P2;PMS_P1;PMS_P2;Temp;Humidity;BMP_temperature;BMP_pressure;BME280_temperature;BME280_humidity;BME280_pressure;Samples;Min_cycle;Max_cycle;Signal;HPM_P1;HPM_P2
2024/03/12 00:01:56;;;;;;;1.55;1.50;;;7.40;99.90;;;;;;5039004;28;20829;-77
2024/03/12 00:04:24;;;;;;;1.70;1.60;;;7.40;99.90;;;;;;5038722;28;20229;-76
2024/03/12 00:06:51;;;;;;;1.63;1.52;;;7.40;99.90;;;;;;5042416;28;20313;-76
2024/03/12 00:09:19;;;;;;;1.80;1.70;;;7.40;99.90;;;;;;5043354;28;20709;-76
2024/03/12 00:11:47;;;;;;;1.85;1.75;;;7.40;99.90;;;;;;5041211;28;20222;-76
2024/03/12 00:14:14;;;;;;;1.80;1.70;;;7.40;99.90;;;;;;5041979;28;20226;-76
2024/03/12 00:16:41;;;;;;;1.88;1.77;;;7.40;99.90;;;;;;5042056;28;20647;-75
2024/03/12 00:19:09;;;;;;;1.48;1.48;;;7.40;99.90;;;;;;5042657;28;20222;-76
2024/03/12 00:21:37;;;;;;;1.80;1.70;;;7.40;99.90;;;;;;5046683;28;20290;-75
2024/03/12 00:24:05;;;;;;;1.75;1.70;;;7.40;99.90;;;;;;5040105;28;20273;-76
2024/03/12 00:26:32;;;;;;;1.58;1.52;;;7.30;99.90;;;;;;5043016;28;20218;-76
2024/03/12 00:29:00;;;;;;;1.80;1.75;;;7.30;99.90;;;;;;5041176;28;20272;-75
2024/03/12 00:31:27;;;;;;;1.70;1.60;;;7.30;99.90;;;;;;5039949;28;20229;-76
2024/03/12 00:33:55;;;;;;;2.00;1.80;;;7.30;99.90;;;;;;5040367;28;20273;-75
2024/03/12 00:36:22;;;;;;;1.80;1.70;;;7.30;99.90;;;;;;5038417;28;20218;-77
2024/03/12 00:38:51;;;;;;;2.17;2.08;;;7.30;99.90;;;;;;5041459;28;20246;-76
2024/03/12 00:41:20;;;;;;;1.70;1.70;;;7.40;99.90;;;;;;5038813;28;20218;-74
2024/03/12 00:43:47;;;;;;;1.90;1.80;;;7.40;99.90;;;;;;5038568;28;20237;-75
2024/03/12 00:46:15;;;;;;;1.70;1.60;;;7.30;99.90;;;;;;5038929;28;20226;-75
2024/03/12 00:48:42;;;;;;;1.60;1.60;;;7.30;99.90;;;;;;5041453;28;20252;-76
2024/03/12 00:51:11;;;;;;;2.40;2.20;;;7.20;99.90;;;;;;5036752;28;20206;-75
2024/03/12 00:53:39;;;;;;;1.73;1.67;;;7.20;99.90;;;;;;5039797;28;20260;-76
2024/03/12 00:56:07;;;;;;;1.55;1.55;;;7.20;99.90;;;;;;5040068;28;21844;-76
2024/03/12 00:58:36;;;;;;;2.05;1.95;;;7.10;99.90;;;;;;5036015;28;20285;-75
2024/03/12 01:01:03;;;;;;;1.90;1.80;;;7.10;99.90;;;;;;5037171;28;20219;-74
2024/03/12 01:03:30;;;;;;;2.08;1.98;;;7.10;99.90;;;;;;5035930;28;20305;-75
2024/03/12 01:05:57;;;;;;;1.88;1.80;;;7.10;99.90;;;;;;5033931;28;20198;-76
2024/03/12 01:08:24;;;;;;;1.83;1.73;;;7.00;99.90;;;;;;5038416;28;20207;-75
2024/03/12 01:10:51;;;;;;;1.75;1.65;;;7.00;99.90;;;;;;5041432;28;20239;-74
2024/03/12 01:13:20;;;;;;;1.55;1.55;;;7.00;99.90;;;;;;5041557;28;20218;-75
2024/03/12 01:15:48;;;;;;;1.85;1.75;;;7.00;99.90;;;;;;5039404;28;20195;-75
2024/03/12 01:18:15;;;;;;;1.77;1.67;;;7.00;99.90;;;;;;5040738;28;20717;-76
2024/03/12 01:20:41;;;;;;;1.83;1.73;;;7.00;99.90;;;;;;5039548;28;20250;-74
2024/03/12 01:23:09;;;;;;;1.88;1.77;;;7.00;99.90;;;;;;5036720;28;20288;-75
2024/03/12 01:25:36;;;;;;;2.03;1.92;;;7.00;99.90;;;;;;5041537;28;20302;-76
2024/03/12 01:28:05;;;;;;;1.80;1.70;;;7.00;99.90;;;;;;5040797;28;20288;-76
2024/03/12 01:30:33;;;;;;;1.83;1.80;;;7.00;99.90;;;;;;5039569;28;20288;-75
2024/03/12 01:33:02;;;;;;;1.90;1.80;;;6.90;99.90;;;;;;5039532;28;20218;-75
2024/03/12 01:35:30;;;;;;;2.00;1.90;;;6.90;99.90;;;;;;5038735;28;20211;-75
2024/03/12 01:37:58;;;;;;;1.83;1.80;;;6.80;99.90;;;;;;5038419;28;20716;-74
2024/03/12 01:40:27;;;;;;;2.00;1.90;;;6.90;99.90;;;;;;5041251;28;20229;-75
2024/03/12 01:43:01;;;;;;;2.08;1.98;;;6.90;99.90;;;;;;5038615;28;20778;-74
2024/03/12 01:45:32;;;;;;;2.00;1.90;;;6.90;99.90;;;;;;5037350;28;20210;-74
2024/03/12 01:48:06;;;;;;;1.48;1.48;;;6.80;99.90;;;;;;5041808;28;20225;-74
2024/03/12 01:50:35;;;;;;;2.17;2.08;;;6.80;99.90;;;;;;5041246;28;20227;-76
2024/03/12 01:53:05;;;;;;;1.80;1.73;;;6.80;99.90;;;;;;5038113;28;20246;-75
2024/03/12 01:55:34;;;;;;;1.95;1.85;;;6.80;99.90;;;;;;5040639;28;20261;-76
2024/03/12 01:58:02;;;;;;;1.67;1.67;;;6.80;99.90;;;;;;5037196;28;20221;-75
2024/03/12 02:00:32;;;;;;;1.83;1.75;;;6.70;99.90;;;;;;5040161;28;20241;-75
2024/03/12 02:03:01;;;;;;;1.98;1.88;;;6.70;99.90;;;;;;5037015;28;20948;-75
2024/03/12 02:05:28;;;;;;;1.88;1.77;;;6.80;99.90;;;;;;5037541;28;20238;-77
2024/03/12 02:07:55;;;;;;;2.00;1.90;;;6.70;99.90;;;;;;5037753;28;20260;-74
2024/03/12 02:10:22;;;;;;;1.90;1.80;;;6.80;99.90;;;;;;5040438;28;20725;-76
2024/03/12 02:12:49;;;;;;;1.85;1.75;;;6.70;99.90;;;;;;5042332;28;20238;-75
2024/03/12 02:15:20;;;;;;;1.90;1.80;;;6.70;99.90;;;;;;5036109;28;20247;-75
2024/03/12 02:17:48;;;;;;;1.90;1.80;;;6.70;99.90;;;;;;5038542;28;20246;-75
2024/03/12 02:20:17;;;;;;;1.65;1.65;;;6.70;99.90;;;;;;5040271;28;20357;-76
2024/03/12 02:22:44;;;;;;;1.90;1.80;;;6.70;99.90;;;;;;5038547;28;20601;-75
2024/03/12 02:25:13;;;;;;;2.00;1.90;;;6.60;99.90;;;;;;5037838;28;20231;-75
2024/03/12 02:27:40;;;;;;;2.10;2.00;;;6.60;99.90;;;;;;5039919;28;20250;-75
2024/03/12 02:30:09;;;;;;;1.85;1.75;;;6.60;99.90;;;;;;5035733;28;20231;-75
2024/03/12 02:32:36;;;;;;;2.08;1.98;;;6.60;99.90;;;;;;5038638;28;20230;-76
2024/03/12 02:35:04;;;;;;;2.00;1.90;;;6.60;99.90;;;;;;5039770;28;20280;-75
2024/03/12 02:37:31;;;;;;;2.00;1.90;;;6.60;99.90;;;;;;5038369;28;20932;-73
2024/03/12 02:39:58;;;;;;;2.85;1.90;;;6.60;99.90;;;;;;5037007;28;20876;-75
2024/03/12 02:42:28;;;;;;;1.98;1.88;;;6.50;99.90;;;;;;5039864;28;20242;-75
2024/03/12 02:44:55;;;;;;;1.65;1.63;;;6.40;99.90;;;;;;5041202;28;20214;-76
2024/03/12 02:47:23;;;;;;;1.77;1.67;;;6.40;99.90;;;;;;5041677;28;20231;-76
2024/03/12 02:49:51;;;;;;;1.73;1.73;;;6.40;99.90;;;;;;5039061;28;20319;-75
2024/03/12 02:52:18;;;;;;;2.10;2.00;;;6.40;99.90;;;;;;5043625;28;20967;-77
2024/03/12 02:54:44;;;;;;;2.00;1.90;;;6.40;99.90;;;;;;5044343;28;21005;-74
2024/03/12 02:57:13;;;;;;;1.73;1.70;;;6.40;99.90;;;;;;5041851;28;20568;-75
2024/03/12 02:59:41;;;;;;;1.70;1.70;;;6.40;99.90;;;;;;5042145;28;20756;-75
2024/03/12 03:02:08;;;;;;;1.92;1.83;;;6.30;99.90;;;;;;5040246;28;20260;-75
2024/03/12 03:04:36;;;;;;;2.10;1.92;;;6.30;99.90;;;;;;5040600;28;20242;-75
2024/03/12 03:07:04;;;;;;;1.90;1.80;;;6.30;99.90;;;;;;5041724;28;20242;-76
2024/03/12 03:09:31;;;;;;;1.88;1.80;;;6.30;99.90;;;;;;5040606;28;20222;-77
2024/03/12 03:11:59;;;;;;;1.80;1.70;;;6.30;99.90;;;;;;5040148;28;20238;-75
2024/03/12 03:14:26;;;;;;;1.83;1.73;;;6.30;99.90;;;;;;5040870;28;20223;-75
2024/03/12 03:16:55;;;;;;;1.70;1.70;;;6.30;99.90;;;;;;5043735;28;20246;-76
2024/03/12 03:19:22;;;;;;;1.80;1.70;;;6.30;99.90;;;;;;5041795;28;20321;-75
2024/03/12 03:21:49;;;;;;;1.80;1.80;;;6.30;99.90;;;;;;5040186;28;20721;-75
2024/03/12 03:24:16;;;;;;;1.95;1.85;;;6.30;99.90;;;;;;5042839;28;20246;-77
2024/03/12 03:26:43;;;;;;;2.17;2.08;;;6.30;99.90;;;;;;5041756;28;20280;-75
2024/03/12 03:29:11;;;;;;;1.77;1.67;;;6.30;99.90;;;;;;5042584;28;20360;-75
2024/03/12 03:31:38;;;;;;;2.10;2.00;;;6.20;99.90;;;;;;5040919;28;20229;-75
2024/03/12 03:34:06;;;;;;;2.00;1.90;;;6.20;99.90;;;;;;5041180;28;20250;-76
2024/03/12 03:36:33;;;;;;;2.13;2.03;;;6.20;99.90;;;;;;5046858;28;20242;-76
2024/03/12 03:39:01;;;;;;;2.28;2.17;;;6.20;99.90;;;;;;5041063;28;20226;-75
2024/03/12 03:41:29;;;;;;;2.00;1.90;;;6.20;99.90;;;;;;5043496;28;20665;-76
2024/03/12 03:43:56;;;;;;;1.70;1.60;;;6.20;99.90;;;;;;5044538;28;20227;-75
2024/03/12 03:46:24;;;;;;;2.05;1.95;;;6.20;99.90;;;;;;5044585;28;20269;-76
2024/03/12 03:48:51;;;;;;;1.70;1.60;;;6.30;99.90;;;;;;5042868;28;20280;-75
2024/03/12 03:51:19;;;;;;;2.13;2.03;;;6.30;99.90;;;;;;5040336;28;20349;-76
2024/03/12 03:53:46;;;;;;;1.95;1.85;;;6.30;99.90;;;;;;5041091;28;20713;-75
2024/03/12 03:56:15;;;;;;;1.73;1.63;;;6.30;99.90;;;;;;5042491;28;20300;-75
2024/03/12 03:58:43;;;;;;;1.90;1.80;;;6.30;99.90;;;;;;5044152;28;20339;-76
2024/03/12 04:01:10;;;;;;;1.88;1.77;;;6.20;99.90;;;;;;5044723;28;20237;-76
2024/03/12 04:03:38;;;;;;;1.70;1.70;;;6.20;99.90;;;;;;5043553;28;20242;-76
2024/03/12 04:06:06;;;;;;;2.00;2.00;;;6.10;99.90;;;;;;5042299;28;20302;-75
2024/03/12 04:08:36;;;;;;;1.60;1.60;;;6.10;99.90;;;;;;5043635;28;20222;-76
2024/03/12 04:11:03;;;;;;;1.73;1.73;;;6.10;99.90;;;;;;5045785;28;20191;-76
2024/03/12 04:13:32;;;;;;;1.60;1.60;;;6.10;99.90;;;;;;5039019;28;20692;-76
2024/03/12 04:15:59;;;;;;;1.80;1.80;;;6.10;99.90;;;;;;5040533;28;20199;-76
2024/03/12 04:18:26;;;;;;;1.88;1.83;;;6.10;99.90;;;;;;5042494;28;20227;-75
2024/03/12 04:20:54;;;;;;;2.00;1.90;;;6.10;99.90;;;;;;5043115;28;20254;-75
2024/03/12 04:23:21;;;;;;;1.63;1.63;;;6.10;99.90;;;;;;5039603;28;20223;-75
2024/03/12 04:25:50;;;;;;;2.00;1.90;;;6.10;99.90;;;;;;5039281;28;20268;-75
2024/03/12 04:28:19;;;;;;;2.10;2.00;;;6.00;99.90;;;;;;5038285;28;20215;-75
2024/03/12 04:30:48;;;;;;;1.85;1.80;;;6.00;99.90;;;;;;5042270;28;20778;-76
2024/03/12 04:33:15;;;;;;;1.88;1.77;;;6.00;99.90;;;;;;5039523;28;20226;-76
2024/03/12 04:35:43;;;;;;;1.67;1.67;;;6.00;99.90;;;;;;5040873;28;20595;-76
2024/03/12 04:38:10;;;;;;;1.70;1.70;;;6.00;99.90;;;;;;5042440;28;20321;-76
2024/03/12 04:40:37;;;;;;;2.40;2.30;;;6.00;99.90;;;;;;5043782;28;20308;-75
2024/03/12 04:43:05;;;;;;;1.63;1.63;;;6.00;99.90;;;;;;5038924;28;20242;-75
2024/03/12 04:45:32;;;;;;;2.05;2.00;;;6.00;99.90;;;;;;5038296;28;20265;-76
2024/03/12 04:47:59;;;;;;;1.48;1.48;;;6.00;99.90;;;;;;5042302;28;20219;-75
2024/03/12 04:50:26;;;;;;;2.00;1.90;;;6.00;99.90;;;;;;5040606;28;20293;-75
2024/03/12 04:52:53;;;;;;;2.08;1.90;;;6.00;99.90;;;;;;5040883;28;20250;-76
2024/03/12 04:55:20;;;;;;;2.10;2.00;;;6.00;99.90;;;;;;5038534;28;20238;-75
2024/03/12 04:57:47;;;;;;;1.88;1.77;;;6.00;99.90;;;;;;5043561;28;20214;-76
2024/03/12 05:00:18;;;;;;;2.10;2.00;;;5.90;99.90;;;;;;5036653;28;20258;-76
2024/03/12 05:02:46;;;;;;;1.90;1.80;;;5.90;99.90;;;;;;5038533;28;20245;-75
2024/03/12 05:05:17;;;;;;;2.05;1.95;;;5.90;99.90;;;;;;5042571;28;20250;-76
2024/03/12 05:07:44;;;;;;;2.53;1.92;;;5.90;99.90;;;;;;5041263;28;20266;-75
2024/03/12 05:10:12;;;;;;;2.20;2.10;;;5.90;99.90;;;;;;5040519;28;20230;-75
2024/03/12 05:12:39;;;;;;;2.03;1.92;;;5.90;99.90;;;;;;5039960;28;20219;-75
2024/03/12 05:15:07;;;;;;;1.63;1.63;;;5.90;99.90;;;;;;5040400;28;20265;-75
2024/03/12 05:17:36;;;;;;;2.17;2.08;;;5.90;99.90;;;;;;5038493;28;20254;-75
2024/03/12 05:20:06;;;;;;;2.13;2.03;;;5.90;99.90;;;;;;5042428;28;20230;-75
2024/03/12 05:22:33;;;;;;;2.42;2.33;;;5.90;99.90;;;;;;5042073;28;20314;-76
2024/03/12 05:25:01;;;;;;;2.20;2.10;;;5.90;99.90;;;;;;5042250;28;21002;-76
2024/03/12 05:27:37;;;;;;;2.20;2.10;;;5.80;99.90;;;;;;5042033;28;20230;-76
2024/03/12 05:30:10;;;;;;;2.28;2.17;;;5.90;99.90;;;;;;5041125;28;20793;-76
2024/03/12 05:32:41;;;;;;;2.20;2.10;;;5.80;99.90;;;;;;5041347;28;20230;-75
2024/03/12 05:35:17;;;;;;;2.28;2.17;;;5.80;99.90;;;;;;5039512;28;20218;-75
2024/03/12 05:38:01;;;;;;;1.98;1.88;;;5.80;99.90;;;;;;5039177;28;20226;-76
2024/03/12 05:40:40;;;;;;;2.10;2.00;;;5.90;99.90;;;;;;5037947;28;20229;-76
2024/03/12 05:48:38;;;;;;;2.10;2.00;;;5.80;99.90;;;;;;5041566;28;20252;-76
2024/03/12 05:51:05;;;;;;;2.10;2.05;;;5.90;99.90;;;;;;5038092;28;20191;-76
2024/03/12 05:53:32;;;;;;;2.40;2.30;;;5.90;99.90;;;;;;5041387;28;20210;-75
2024/03/12 05:55:59;;;;;;;2.20;2.10;;;5.90;99.90;;;;;;5038981;28;20256;-75
2024/03/12 05:58:26;;;;;;;2.38;2.28;;;5.90;99.90;;;;;;5038838;28;20242;-76
2024/03/12 06:00:53;;;;;;;2.22;2.13;;;5.90;99.90;;;;;;5041092;28;20250;-76
2024/03/12 06:03:20;;;;;;;2.10;2.00;;;6.00;99.90;;;;;;5038302;28;20254;-75
2024/03/12 06:05:49;;;;;;;2.30;2.20;;;6.00;99.90;;;;;;5041562;28;20210;-76
2024/03/12 06:08:16;;;;;;;2.20;2.10;;;6.10;99.90;;;;;;5040891;28;20246;-75
2024/03/12 06:10:43;;;;;;;2.00;1.90;;;6.20;99.90;;;;;;5039485;28;20727;-76
2024/03/12 06:13:12;;;;;;;2.17;2.08;;;6.20;99.90;;;;;;5042096;28;20767;-76
2024/03/12 06:15:39;;;;;;;2.13;2.03;;;6.30;99.90;;;;;;5039134;28;20222;-76
2024/03/12 06:18:06;;;;;;;2.20;2.10;;;6.40;99.90;;;;;;5044785;28;20217;-76
2024/03/12 06:20:33;;;;;;;2.40;2.30;;;6.40;99.90;;;;;;5045400;28;20276;-76
2024/03/12 06:23:01;;;;;;;2.05;1.95;;;6.30;99.90;;;;;;5043415;28;20322;-75
2024/03/12 06:25:28;;;;;;;2.40;2.30;;;6.40;99.90;;;;;;5048854;28;20222;-76
2024/03/12 06:27:59;;;;;;;2.80;2.60;;;6.40;99.90;;;;;;5046901;28;20241;-76
2024/03/12 06:30:26;;;;;;;2.83;2.63;;;6.40;99.90;;;;;;5044337;28;20219;-75
2024/03/12 06:32:53;;;;;;;2.85;2.65;;;6.50;99.90;;;;;;5046833;28;20242;-76
2024/03/12 06:35:20;;;;;;;2.60;2.45;;;6.60;99.90;;;;;;5044694;28;20219;-76
2024/03/12 06:37:47;;;;;;;2.20;2.10;;;6.70;99.90;;;;;;5044923;28;20223;-76
2024/03/12 06:40:17;;;;;;;2.45;2.25;;;6.80;99.90;;;;;;5040497;28;20669;-75
2024/03/12 06:42:44;;;;;;;2.13;2.03;;;7.00;99.90;;;;;;5043360;28;20218;-76
2024/03/12 06:45:12;;;;;;;2.40;2.30;;;7.10;99.90;;;;;;5046922;28;20222;-75
2024/03/12 06:47:41;;;;;;;2.42;2.33;;;7.10;99.90;;;;;;5050550;28;20233;-76
2024/03/12 06:50:09;;;;;;;2.35;2.25;;;7.20;99.90;;;;;;5043213;28;20226;-75
2024/03/12 06:52:36;;;;;;;2.50;2.30;;;7.20;99.90;;;;;;5041968;28;20302;-76
2024/03/12 06:55:12;;;;;;;2.53;2.33;;;7.50;99.90;;;;;;5042356;28;20242;-77
2024/03/12 06:57:47;;;;;;;3.67;2.28;;;8.00;99.90;;;;;;5043579;28;21517;-77
2024/03/12 07:00:15;;;;;;;2.60;2.40;;;8.60;99.90;;;;;;5046339;28;20222;-76
2024/03/12 07:02:42;;;;;;;2.65;2.17;;;9.10;99.90;;;;;;5044666;28;20862;-76
2024/03/12 07:05:09;;;;;;;2.40;2.30;;;9.30;99.90;;;;;;5052905;28;20250;-76
2024/03/12 07:07:43;;;;;;;2.20;2.10;;;9.20;99.90;;;;;;5045006;28;20913;-77
2024/03/12 07:10:11;;;;;;;2.22;2.13;;;9.10;99.90;;;;;;5043697;28;20778;-77
2024/03/12 07:12:42;;;;;;;2.67;2.47;;;9.10;99.90;;;;;;5042027;28;20218;-77
2024/03/12 07:15:11;;;;;;;2.22;2.13;;;9.00;99.90;;;;;;5041304;28;20869;-77
2024/03/12 07:17:38;;;;;;;2.22;2.10;;;9.20;99.90;;;;;;5042299;28;20309;-77
2024/03/12 07:20:10;;;;;;;3.75;3.45;;;9.60;99.90;;;;;;5044094;28;20258;-76
2024/03/12 07:22:42;;;;;;;3.80;3.40;;;9.90;99.90;;;;;;5046263;28;20231;-77
2024/03/12 07:25:11;;;;;;;3.33;3.10;;;10.30;99.90;;;;;;5048264;28;20253;-77
2024/03/12 07:27:40;;;;;;;2.65;2.45;;;10.80;99.90;;;;;;5052966;28;20314;-76
2024/03/12 07:30:10;;;;;;;2.58;2.38;;;11.50;99.90;;;;;;5047835;28;20246;-76
2024/03/12 07:32:37;;;;;;;3.35;2.42;;;12.10;99.90;;;;;;5044634;28;20476;-77
2024/03/12 07:35:04;;;;;;;2.22;2.13;;;12.70;99.90;;;;;;5039477;28;20305;-76
2024/03/12 07:37:36;;;;;;;4.65;2.58;;;13.10;99.90;;;;;;5040902;28;20306;-77
2024/03/12 07:40:04;;;;;;;2.67;2.47;;;13.20;99.90;;;;;;5044405;28;20222;-78
2024/03/12 07:42:31;;;;;;;2.80;2.50;;;13.30;99.90;;;;;;5043334;28;20342;-76
2024/03/12 07:44:59;;;;;;;2.40;2.30;;;13.50;99.90;;;;;;5042676;28;20261;-76
2024/03/12 07:47:30;;;;;;;2.20;2.10;;;13.60;99.90;;;;;;5044401;28;20302;-76
2024/03/12 07:49:57;;;;;;;1.80;1.70;;;13.60;99.90;;;;;;5041706;28;20253;-76
2024/03/12 07:52:24;;;;;;;2.15;1.95;;;13.80;99.90;;;;;;5042742;28;20295;-76
2024/03/12 07:54:52;;;;;;;1.92;1.60;;;14.20;99.90;;;;;;5041246;28;20214;-77
2024/03/12 07:57:19;;;;;;;1.90;1.80;;;14.50;99.90;;;;;;5047270;28;20268;-76
2024/03/12 07:59:46;;;;;;;1.70;1.60;;;14.90;99.90;;;;;;5041278;28;20252;-77
2024/03/12 08:02:19;;;;;;;2.42;1.75;;;15.10;99.90;;;;;;5035163;28;20227;-77
2024/03/12 08:04:47;;;;;;;2.28;1.92;;;15.20;99.90;;;;;;5039478;28;20223;-76
2024/03/12 08:07:14;;;;;;;2.13;1.90;;;15.10;99.90;;;;;;5037472;28;21047;-77
2024/03/12 08:09:42;;;;;;;1.70;1.60;;;15.00;99.90;;;;;;5033921;28;20223;-77
2024/03/12 08:12:11;;;;;;;1.88;1.77;;;15.00;99.90;;;;;;5037608;28;20226;-80
2024/03/12 08:14:39;;;;;;;1.75;1.65;;;14.70;99.90;;;;;;5039064;28;20317;-79
2024/03/12 08:17:07;;;;;;;1.92;1.50;;;15.00;99.90;;;;;;5034790;28;21128;-77
2024/03/12 08:19:37;;;;;;;1.92;1.60;;;15.00;99.90;;;;;;5036032;28;20246;-77
2024/03/12 08:22:05;;;;;;;2.25;2.05;;;15.00;99.90;;;;;;5042992;28;20610;-79
2024/03/12 08:24:32;;;;;;;2.55;1.90;;;14.80;99.90;;;;;;5040134;28;20261;-77
2024/03/12 08:26:59;;;;;;;2.55;2.35;;;14.60;99.90;;;;;;5041699;28;20229;-76
2024/03/12 08:29:27;;;;;;;2.72;1.75;;;14.30;99.90;;;;;;5043341;28;20226;-80
2024/03/12 08:31:54;;;;;;;2.00;1.90;;;14.40;99.90;;;;;;5040176;28;20740;-78
2024/03/12 08:34:21;;;;;;;1.75;1.65;;;14.30;99.90;;;;;;5037901;28;20733;-78
2024/03/12 08:36:49;;;;;;;2.10;2.00;;;14.20;99.90;;;;;;5035794;28;20234;-77
2024/03/12 08:39:16;;;;;;;1.90;1.80;;;14.10;99.90;;;;;;5038222;28;20227;-78
2024/03/12 08:41:44;;;;;;;2.53;1.75;;;14.30;99.90;;;;;;5037171;28;20280;-78
2024/03/12 08:44:14;;;;;;;5.30;1.92;;;14.30;99.90;;;;;;5039101;28;20244;-78
2024/03/12 08:46:41;;;;;;;1.95;1.52;;;14.50;99.90;;;;;;5037439;28;20219;-78
2024/03/12 08:49:10;;;;;;;2.10;1.90;;;15.10;99.90;;;;;;5037418;28;20262;-78
2024/03/12 08:51:39;;;;;;;2.78;1.98;;;15.90;99.90;;;;;;5040141;28;20229;-79
2024/03/12 08:54:08;;;;;;;2.13;1.90;;;16.30;99.90;;;;;;5042820;28;20254;-77
2024/03/12 08:56:36;;;;;;;2.00;1.80;;;16.50;99.90;;;;;;5044481;28;20605;-79
2024/03/12 08:59:03;;;;;;;2.40;2.20;;;16.70;99.90;;;;;;5039740;28;20595;-77
2024/03/12 09:01:31;;;;;;;1.80;1.70;;;16.70;99.90;;;;;;5031834;28;20261;-77
2024/03/12 09:03:58;;;;;;;2.15;1.80;;;17.00;99.90;;;;;;5032920;28;20777;-79
2024/03/12 09:06:26;;;;;;;1.80;1.70;;;17.40;99.90;;;;;;5038145;28;20744;-78
2024/03/12 09:08:53;;;;;;;1.52;1.40;;;17.50;99.90;;;;;;5038568;28;20902;-77
2024/03/12 09:11:21;;;;;;;1.80;1.70;;;17.50;99.90;;;;;;5036313;28;20945;-77
2024/03/12 09:13:48;;;;;;;3.00;1.63;;;17.30;99.90;;;;;;5032226;28;20310;-78
2024/03/12 09:16:16;;;;;;;1.70;1.60;;;17.00;99.90;;;;;;5032810;28;20370;-78
2024/03/12 09:18:43;;;;;;;1.70;1.60;;;16.90;99.90;;;;;;5037625;28;20238;-77
2024/03/12 09:21:12;;;;;;;2.08;1.60;;;17.00;99.90;;;;;;5037833;28;20278;-78
2024/03/12 09:23:39;;;;;;;1.60;1.50;;;17.20;99.90;;;;;;5033695;28;20230;-77
2024/03/12 09:26:07;;;;;;;2.10;1.33;;;17.50;99.90;;;;;;5035593;28;20288;-77
2024/03/12 09:28:36;;;;;;;1.50;1.40;;;17.90;99.90;;;;;;5037150;28;20831;-76
2024/03/12 09:31:04;;;;;;;1.67;1.58;;;17.90;99.90;;;;;;5032565;28;20729;-77
2024/03/12 09:33:31;;;;;;;1.88;1.70;;;17.80;99.90;;;;;;5032155;28;20197;-77
2024/03/12 09:35:58;;;;;;;1.80;1.70;;;17.90;99.90;;;;;;5034336;28;20233;-78
2024/03/12 09:38:25;;;;;;;1.50;1.40;;;17.80;99.90;;;;;;5037864;28;20339;-77
2024/03/12 09:40:55;;;;;;;1.55;1.42;;;17.80;99.90;;;;;;5034803;28;20316;-76
2024/03/12 09:43:24;;;;;;;1.40;1.30;;;17.60;99.90;;;;;;5035548;28;20313;-78
2024/03/12 09:45:52;;;;;;;1.95;1.30;;;17.20;99.90;;;;;;5035900;28;20239;-80
2024/03/12 09:48:21;;;;;;;1.42;1.17;;;17.00;99.90;;;;;;5037193;28;20277;-77
2024/03/12 09:50:49;;;;;;;1.30;1.30;;;16.80;99.90;;;;;;5031566;28;20310;-77
2024/03/12 09:53:17;;;;;;;1.42;1.33;;;16.60;99.90;;;;;;5036404;28;20214;-77
2024/03/12 09:55:45;;;;;;;1.45;1.35;;;16.50;99.90;;;;;;5035666;28;20300;-79
2024/03/12 09:58:12;;;;;;;1.58;1.20;;;16.70;99.90;;;;;;5035532;28;20222;-76
2024/03/12 10:00:39;;;;;;;1.10;1.00;;;17.00;99.90;;;;;;5033311;28;20265;-77
2024/03/12 10:03:08;;;;;;;1.25;1.25;;;17.30;99.90;;;;;;5029610;28;20226;-77
2024/03/12 10:05:35;;;;;;;1.77;1.40;;;17.60;99.90;;;;;;5035068;28;20295;-77
2024/03/12 10:08:14;;;;;;;2.72;1.70;;;17.50;99.90;;;;;;5034248;28;20312;-77
2024/03/12 10:10:42;;;;;;;1.92;1.33;;;17.60;99.90;;;;;;5032109;28;20609;-77
2024/03/12 10:13:14;;;;;;;2.35;1.42;;;17.60;99.90;;;;;;5034729;28;20236;-76
2024/03/12 10:15:50;;;;;;;3.30;1.30;;;17.70;99.90;;;;;;5027359;28;20219;-77
2024/03/12 10:18:19;;;;;;;1.20;1.10;;;17.90;99.90;;;;;;5034894;28;20231;-77
2024/03/12 10:20:46;;;;;;;4.65;1.30;;;17.70;99.90;;;;;;5040271;28;20616;-77
2024/03/12 10:23:15;;;;;;;1.58;1.48;;;17.60;99.90;;;;;;5033042;28;20302;-77
2024/03/12 10:25:44;;;;;;;1.70;1.52;;;17.60;99.90;;;;;;5036937;28;20373;-76
2024/03/12 10:28:14;;;;;;;1.58;1.48;;;17.90;99.90;;;;;;5033854;28;20615;-77
2024/03/12 10:30:42;;;;;;;1.98;1.30;;;18.10;99.90;;;;;;5036481;28;20230;-77
2024/03/12 10:33:14;;;;;;;1.85;1.50;;;18.10;99.90;;;;;;5026245;28;20725;-77
2024/03/12 10:35:44;;;;;;;1.40;1.30;;;18.10;99.90;;;;;;5037139;28;20229;-76
2024/03/12 10:38:13;;;;;;;1.25;1.15;;;18.10;99.90;;;;;;5039160;28;20664;-79
2024/03/12 10:40:40;;;;;;;1.20;1.10;;;18.00;99.90;;;;;;5038213;28;20230;-77
2024/03/12 10:43:08;;;;;;;2.45;1.42;;;18.00;99.90;;;;;;5036359;28;20221;-79
2024/03/12 10:45:36;;;;;;;1.33;1.23;;;18.10;99.90;;;;;;5040843;28;20688;-77
2024/03/12 10:48:06;;;;;;;1.40;1.30;;;18.30;99.90;;;;;;5037663;28;20670;-77
2024/03/12 10:50:35;;;;;;;1.40;1.10;;;18.30;99.90;;;;;;5037595;28;20215;-78
2024/03/12 10:53:04;;;;;;;1.00;1.00;;;18.20;99.90;;;;;;5037663;28;20218;-77
2024/03/12 10:55:32;;;;;;;1.55;1.42;;;18.20;99.90;;;;;;5034678;28;20246;-76
2024/03/12 10:58:04;;;;;;;1.10;1.10;;;18.40;99.90;;;;;;5037509;28;20652;-77
2024/03/12 11:00:31;;;;;;;1.27;1.15;;;18.40;99.90;;;;;;5042999;28;20920;-76
2024/03/12 11:02:58;;;;;;;1.05;1.05;;;18.40;99.90;;;;;;5033782;28;20316;-77
2024/03/12 11:05:27;;;;;;;1.20;1.02;;;18.30;99.90;;;;;;5039386;28;20743;-78
2024/03/12 11:07:57;;;;;;;1.10;1.10;;;18.40;99.90;;;;;;5039774;28;20215;-77
2024/03/12 11:10:26;;;;;;;0.98;0.98;;;18.50;99.90;;;;;;5035727;28;20230;-77
2024/03/12 11:12:54;;;;;;;4.88;1.20;;;18.60;99.90;;;;;;5041092;28;20218;-77
2024/03/12 11:15:23;;;;;;;1.17;1.08;;;18.60;99.90;;;;;;5044731;28;20219;-77
2024/03/12 11:17:51;;;;;;;1.95;1.00;;;18.50;99.90;;;;;;5036745;28;20874;-77
2024/03/12 11:20:22;;;;;;;0.98;0.98;;;18.30;99.90;;;;;;5040412;28;21139;-77
2024/03/12 11:22:54;;;;;;;1.10;1.10;;;18.30;99.90;;;;;;5037613;28;20224;-78
2024/03/12 11:25:33;;;;;;;1.08;0.85;;;18.30;99.90;;;;;;5040504;28;20215;-78
2024/03/12 11:28:20;;;;;;;0.90;0.90;;;18.30;99.90;;;;;;5040347;28;20972;-77
2024/03/12 11:30:47;;;;;;;0.80;0.80;;;18.20;99.90;;;;;;5039586;28;20230;-79
2024/03/12 11:33:42;;;;;;;1.10;1.00;;;17.90;99.90;;;;;;5042298;28;20222;-76
2024/03/12 11:36:10;;;;;;;1.00;1.00;;;17.90;99.90;;;;;;5045152;28;21687;-76
2024/03/12 11:38:37;;;;;;;0.80;0.80;;;17.80;99.90;;;;;;5045436;28;21187;-76
2024/03/12 11:41:06;;;;;;;0.90;0.90;;;17.90;99.90;;;;;;5041678;28;20227;-77
2024/03/12 11:43:35;;;;;;;0.90;0.90;;;17.90;99.90;;;;;;5042024;28;20285;-79
2024/03/12 11:46:04;;;;;;;0.80;0.80;;;18.20;99.90;;;;;;5040339;28;20211;-77
2024/03/12 11:48:35;;;;;;;0.90;0.90;;;18.70;99.90;;;;;;5040517;28;20206;-77
2024/03/12 11:51:04;;;;;;;0.90;0.90;;;19.00;99.90;;;;;;5041831;28;20249;-79
2024/03/12 11:53:33;;;;;;;0.98;0.82;;;19.20;99.90;;;;;;5037341;28;20199;-77
2024/03/12 11:56:18;;;;;;;0.82;0.80;;;19.30;99.90;;;;;;5041301;28;20227;-78
2024/03/12 11:58:51;;;;;;;2.35;1.10;;;19.10;99.80;;;;;;5044766;28;20253;-76
2024/03/12 12:01:20;;;;;;;3.90;0.90;;;19.10;99.90;;;;;;5040533;28;20203;-79
2024/03/12 12:03:49;;;;;;;0.70;0.70;;;19.20;99.90;;;;;;5037221;28;20225;-77
2024/03/12 12:06:19;;;;;;;0.90;0.90;;;19.40;99.90;;;;;;5040098;28;20209;-76
2024/03/12 12:08:47;;;;;;;0.80;0.80;;;19.50;99.90;;;;;;5031388;28;20206;-79
2024/03/12 12:11:17;;;;;;;0.95;0.80;;;19.70;99.90;;;;;;5037938;28;20200;-78
2024/03/12 12:13:46;;;;;;;0.80;0.80;;;19.80;99.90;;;;;;5037233;28;20203;-78
2024/03/12 12:16:16;;;;;;;0.70;0.70;;;19.70;98.80;;;;;;5032974;28;20226;-78
2024/03/12 12:18:44;;;;;;;0.80;0.80;;;19.20;97.90;;;;;;5037364;28;20615;-78
2024/03/12 12:21:14;;;;;;;0.63;0.63;;;19.20;98.90;;;;;;5039103;28;20233;-76
2024/03/12 12:23:43;;;;;;;1.20;0.70;;;19.40;99.50;;;;;;5033962;28;20907;-77
2024/03/12 12:26:12;;;;;;;0.77;0.77;;;19.60;99.80;;;;;;5023319;28;20210;-79
2024/03/12 12:28:41;;;;;;;0.80;0.80;;;19.60;99.30;;;;;;5022750;28;20203;-77
2024/03/12 12:31:12;;;;;;;0.70;0.70;;;19.50;96.60;;;;;;5018892;28;20215;-78
2024/03/12 12:33:44;;;;;;;0.80;0.80;;;19.40;96.30;;;;;;5014925;28;20919;-80
2024/03/12 12:36:13;;;;;;;0.73;0.73;;;19.40;96.40;;;;;;5027848;28;20214;-77
2024/03/12 12:38:42;;;;;;;0.70;0.70;;;19.60;96.70;;;;;;5032806;28;20208;-78
2024/03/12 12:41:11;;;;;;;0.82;0.82;;;19.50;93.30;;;;;;5033225;28;20202;-76
2024/03/12 12:43:40;;;;;;;0.90;0.90;;;19.40;95.60;;;;;;5035682;28;20272;-79
2024/03/12 12:46:16;;;;;;;0.70;0.70;;;19.40;95.20;;;;;;5037717;28;20328;-77
2024/03/12 12:48:44;;;;;;;0.70;0.70;;;19.50;96.10;;;;;;5041527;28;20670;-77
2024/03/12 12:51:11;;;;;;;0.82;0.82;;;19.60;94.20;;;;;;5037993;28;20226;-77
2024/03/12 12:53:38;;;;;;;0.60;0.60;;;19.50;94.40;;;;;;5039689;28;20234;-77
2024/03/12 12:56:08;;;;;;;0.80;0.70;;;19.40;94.00;;;;;;5046463;28;20211;-78
2024/03/12 12:58:36;;;;;;;0.70;0.70;;;19.30;94.30;;;;;;5056458;28;20206;-77
2024/03/12 13:01:10;;;;;;;0.70;0.70;;;19.30;94.40;;;;;;5051616;28;20215;-78
2024/03/12 13:04:01;;;;;;;0.70;0.70;;;19.20;94.20;;;;;;5051948;28;20229;-77
2024/03/12 13:06:37;;;;;;;1.45;0.70;;;19.20;91.00;;;;;;5043729;28;20223;-79